Current Weather

Westchester County

White Plains, New York (KHPN)

Report from: Friday, February 23, 2024 1:56 PM EST
Current time: Friday, February 23, 2024 2:49 PM EST

Nearby weather – Weather history – Daily summaries
Weather forecast

Temperature6.7°C (44.1°F)
Wind chill3.9°C (39.0°F)
Dew point3.9°C (39.0°F)
Winds 8 kts (4.1 m/s, 9.2 mph) Northwest (320°)
Visibility10 mi. (16.1 km)
Clouds Ceiling: Broken clouds 900 ft. (274 m)
Broken clouds 3,600 ft. (1,097 m)
Altimeter29.46 in.Hg (998 mB)
Relative humidity82 %
Density altitude-356 ft. (-108 m)
Sea-level pressure99.8 kPa (998 mB, 29.47 in.Hg)
Remarks Automated weather observing station with precipitation discriminator
Flight conditions Instrument Meteorological Conditions
Raw dataKHPN 231856Z 32008KT 10SM BKN009 BKN036 07/04 A2946 RMK AO2 SLP979 T00670039
An error has occurred. This application may no longer respond until reloaded. Reload 🗙